Kennedy Shores, Texas
Current Conditions -  °F | °C
As of 2:53 PM on Monday 24 Nov 2014 (Local Time) from KBRO Reporting Station
Clear Clear  
Wind Chill: 65°   Ceiling: Unl
Heat Index: 65°   Visibility: 10mi
Dew Point: 46°   Wind: 13mph
Humidity: 50%   Direction: 350°N
Pressure: 30"   Gusts: 21mph
Location:  26.0002°N, 97.5729°W
Report Text: KBRO 242053Z 35011G18KT 10SM CLR 18/08 A3000 RMK AO2 SLP158 T01830078 56013
Loading
Personal Weather Stations






























Interactive Weather Map New forecast layout! Learn more

10-Day Weather Forecast

Advertisements
Track Severe Weather on mobile